Time;durP1;ratioP1;P1;durP2;ratioP2;P2;SDS_P1;SDS_P2;PMS_P1;PMS_P2;Temp;Humidity;BMP_temperature;BMP_pressure;BME280_temperature;BME280_humidity;BME280_pressure;Samples;Min_cycle;Max_cycle;Signal;HPM_P1;HPM_P2
2022/07/13 00:02:46;;;;;;;1.30;1.00;;;20.60;27.10;;;;;;10437984;28;20231;-71
2022/07/13 00:07:49;;;;;;;1.13;1.13;;;20.50;27.30;;;;;;10440495;28;20225;-71
2022/07/13 00:12:52;;;;;;;1.40;1.30;;;20.50;27.10;;;;;;10438701;28;20740;-71
2022/07/13 00:17:57;;;;;;;1.27;1.17;;;20.30;27.00;;;;;;10439743;28;20305;-71
2022/07/13 00:23:01;;;;;;;1.13;1.10;;;20.00;27.60;;;;;;10440205;28;20702;-71
2022/07/13 00:28:04;;;;;;;2.30;1.17;;;19.90;27.70;;;;;;10438452;28;20225;-71
2022/07/13 00:33:09;;;;;;;1.83;1.10;;;19.80;27.70;;;;;;10438530;28;20233;-70
2022/07/13 00:38:12;;;;;;;1.23;1.13;;;19.80;28.00;;;;;;10429084;28;20258;-71
2022/07/13 00:43:15;;;;;;;1.10;1.10;;;19.80;27.90;;;;;;10432023;28;20595;-71
2022/07/13 00:48:20;;;;;;;1.20;1.10;;;19.70;27.80;;;;;;10436772;28;20232;-71
2022/07/13 00:53:24;;;;;;;1.60;1.30;;;19.60;28.30;;;;;;10434216;28;20238;-71
2022/07/13 00:58:28;;;;;;;2.23;1.30;;;19.40;28.00;;;;;;10436701;28;20225;-71
2022/07/13 01:03:33;;;;;;;1.13;1.13;;;19.30;28.30;;;;;;10437199;28;20912;-71
2022/07/13 01:08:36;;;;;;;1.27;0.93;;;19.20;28.60;;;;;;10435982;28;20261;-71
2022/07/13 01:13:40;;;;;;;1.73;1.40;;;19.10;28.30;;;;;;10438735;28;20225;-71
2022/07/13 01:18:45;;;;;;;1.57;1.17;;;19.10;28.50;;;;;;10432887;28;20229;-71
2022/07/13 01:23:50;;;;;;;1.00;1.00;;;19.20;28.90;;;;;;10434548;28;20221;-71
2022/07/13 01:28:53;;;;;;;1.23;1.03;;;19.20;29.00;;;;;;10431764;28;20594;-71
2022/07/13 01:33:57;;;;;;;1.20;1.20;;;19.20;28.60;;;;;;10427275;28;20220;-71
2022/07/13 01:39:02;;;;;;;1.23;1.10;;;19.20;28.70;;;;;;10435973;28;20233;-71
2022/07/13 01:44:05;;;;;;;1.17;1.10;;;19.20;29.10;;;;;;10436463;28;20239;-71
2022/07/13 01:49:08;;;;;;;1.40;1.00;;;19.20;28.70;;;;;;10434553;28;20231;-71
2022/07/13 01:54:13;;;;;;;1.20;1.10;;;19.20;28.70;;;;;;10432894;28;20228;-70
2022/07/13 01:59:16;;;;;;;1.43;0.97;;;19.10;29.10;;;;;;10431923;28;20244;-72
2022/07/13 02:04:19;;;;;;;1.30;1.20;;;19.10;28.70;;;;;;10430669;28;20225;-70
2022/07/13 02:09:24;;;;;;;1.40;1.30;;;19.00;28.80;;;;;;10434384;28;20236;-72
2022/07/13 02:14:27;;;;;;;1.53;1.43;;;19.00;29.10;;;;;;10435837;28;20225;-72
2022/07/13 02:19:30;;;;;;;1.10;1.10;;;18.90;28.80;;;;;;10431683;28;20256;-72
2022/07/13 02:24:34;;;;;;;2.10;1.10;;;18.80;28.80;;;;;;10434842;28;20231;-71
2022/07/13 02:29:38;;;;;;;1.67;1.40;;;18.70;29.50;;;;;;10435151;28;20232;-72
2022/07/13 02:34:41;;;;;;;1.50;1.37;;;18.50;29.10;;;;;;10435374;28;20229;-71
2022/07/13 02:39:45;;;;;;;1.37;1.10;;;18.50;29.30;;;;;;10434047;28;20225;-72
2022/07/13 02:44:48;;;;;;;1.30;1.20;;;18.30;29.70;;;;;;10427035;28;20259;-72
2022/07/13 02:49:52;;;;;;;1.40;1.30;;;18.30;29.50;;;;;;10434929;28;20718;-71
2022/07/13 02:54:58;;;;;;;1.20;1.10;;;18.20;29.60;;;;;;10430007;28;20623;-71
2022/07/13 03:00:02;;;;;;;1.73;1.30;;;18.20;29.90;;;;;;10429681;28;20303;-73
2022/07/13 03:05:07;;;;;;;1.80;1.30;;;18.20;29.70;;;;;;10431257;28;20236;-72
2022/07/13 03:10:13;;;;;;;1.33;1.23;;;18.20;29.80;;;;;;10435014;28;20279;-72
2022/07/13 03:15:16;;;;;;;1.40;1.30;;;18.10;30.00;;;;;;10432954;28;20236;-71
2022/07/13 03:20:20;;;;;;;1.20;1.10;;;18.10;29.70;;;;;;10434028;28;20225;-71
2022/07/13 03:25:25;;;;;;;2.13;1.50;;;18.00;29.70;;;;;;10437289;28;20264;-71
2022/07/13 03:30:28;;;;;;;1.90;1.10;;;17.90;30.20;;;;;;10440040;28;20275;-71
2022/07/13 03:35:31;;;;;;;1.30;1.20;;;17.80;30.00;;;;;;10440810;28;20221;-71
2022/07/13 03:40:36;;;;;;;1.50;1.30;;;17.70;30.00;;;;;;10434898;28;20225;-72
2022/07/13 03:45:39;;;;;;;2.60;1.27;;;17.70;30.50;;;;;;10441421;28;20221;-72
2022/07/13 03:50:42;;;;;;;1.10;1.10;;;17.60;30.00;;;;;;10441914;28;20231;-71
2022/07/13 03:55:47;;;;;;;1.27;1.27;;;17.60;30.00;;;;;;10440572;28;20213;-72
2022/07/13 04:00:50;;;;;;;1.60;1.50;;;17.60;30.70;;;;;;10439974;28;20239;-71
2022/07/13 04:05:54;;;;;;;1.60;1.50;;;17.60;30.60;;;;;;10438073;28;20230;-72
2022/07/13 04:10:58;;;;;;;1.40;1.30;;;17.60;30.50;;;;;;10438610;28;20231;-71
2022/07/13 04:16:01;;;;;;;1.40;1.30;;;17.60;31.10;;;;;;10438466;28;20232;-73
2022/07/13 04:21:06;;;;;;;1.53;1.43;;;17.60;30.60;;;;;;10438952;28;20240;-72
2022/07/13 04:26:11;;;;;;;1.50;1.40;;;17.60;30.90;;;;;;10438864;28;20229;-71
2022/07/13 04:31:14;;;;;;;1.30;1.20;;;17.50;31.40;;;;;;10437395;28;20234;-71
2022/07/13 04:36:17;;;;;;;1.60;1.50;;;17.50;31.00;;;;;;10439376;28;20221;-71
2022/07/13 04:41:22;;;;;;;1.50;1.40;;;17.50;31.10;;;;;;10430925;28;20244;-72
2022/07/13 04:46:25;;;;;;;2.70;1.50;;;17.50;31.80;;;;;;10443311;28;20241;-71
2022/07/13 04:51:29;;;;;;;1.60;1.20;;;17.40;31.30;;;;;;10445796;28;20233;-71
2022/07/13 04:56:33;;;;;;;1.50;1.40;;;17.40;31.60;;;;;;10429178;28;20312;-71
2022/07/13 05:01:36;;;;;;;1.93;1.40;;;17.50;32.50;;;;;;10438129;28;20808;-71
2022/07/13 05:06:40;;;;;;;2.23;1.30;;;17.50;31.90;;;;;;10435575;28;20235;-71
2022/07/13 05:11:44;;;;;;;4.53;1.40;;;17.60;32.30;;;;;;10437980;28;20708;-71
2022/07/13 05:16:48;;;;;;;1.60;1.47;;;17.70;33.10;;;;;;10431721;28;20244;-73
2022/07/13 05:21:51;;;;;;;1.50;1.40;;;17.90;32.90;;;;;;10433359;28;20261;-72
2022/07/13 05:26:56;;;;;;;2.50;1.50;;;18.00;32.70;;;;;;10435266;28;20217;-72
2022/07/13 05:31:59;;;;;;;1.87;1.63;;;18.20;33.60;;;;;;10434552;28;20692;-72
2022/07/13 05:37:02;;;;;;;1.63;1.53;;;18.40;33.10;;;;;;10442652;28;20228;-72
2022/07/13 05:42:07;;;;;;;2.80;1.50;;;18.60;33.20;;;;;;10436723;28;20302;-72
2022/07/13 05:47:10;;;;;;;1.47;1.37;;;18.80;33.90;;;;;;10434851;28;20925;-72
2022/07/13 05:52:13;;;;;;;1.70;1.60;;;19.00;33.70;;;;;;10435368;28;20233;-72
2022/07/13 05:57:18;;;;;;;2.47;1.40;;;19.20;34.00;;;;;;10435193;28;20236;-72
2022/07/13 06:02:21;;;;;;;2.87;1.60;;;19.30;34.40;;;;;;10438872;28;22642;-72
2022/07/13 06:07:24;;;;;;;2.07;1.40;;;19.60;34.00;;;;;;10434049;28;20232;-72
2022/07/13 06:12:29;;;;;;;1.30;1.20;;;19.80;33.90;;;;;;10443319;28;20232;-72
2022/07/13 06:17:32;;;;;;;2.30;1.60;;;20.00;34.30;;;;;;10447721;28;20232;-72
2022/07/13 06:22:36;;;;;;;1.60;1.50;;;20.20;33.90;;;;;;10431083;28;20232;-73
2022/07/13 06:27:40;;;;;;;1.30;1.20;;;20.50;33.80;;;;;;10439822;28;20226;-71
2022/07/13 06:32:43;;;;;;;1.30;1.20;;;20.80;34.10;;;;;;10425685;28;20260;-71
2022/07/13 06:37:46;;;;;;;1.33;1.33;;;21.10;33.80;;;;;;10416831;28;20732;-71
2022/07/13 06:42:51;;;;;;;1.40;1.30;;;21.40;33.60;;;;;;10434524;28;20248;-72
2022/07/13 06:47:55;;;;;;;1.40;1.30;;;21.70;33.40;;;;;;10433791;28;20236;-72
2022/07/13 06:52:58;;;;;;;1.63;1.20;;;21.90;33.10;;;;;;10426874;28;20225;-72
2022/07/13 06:58:03;;;;;;;2.10;1.20;;;22.20;33.20;;;;;;10432007;28;20213;-72
2022/07/13 07:03:06;;;;;;;1.27;1.17;;;22.40;33.10;;;;;;10432044;28;20270;-72
2022/07/13 07:08:10;;;;;;;2.33;1.20;;;22.70;32.80;;;;;;10442476;28;20236;-72
2022/07/13 07:13:15;;;;;;;1.20;1.20;;;23.00;32.90;;;;;;10441099;28;20220;-73
2022/07/13 07:18:18;;;;;;;1.20;1.13;;;23.20;32.50;;;;;;10437160;28;20227;-73
2022/07/13 07:23:21;;;;;;;1.00;1.00;;;23.40;32.10;;;;;;10435464;28;20484;-73
2022/07/13 07:28:26;;;;;;;1.20;1.20;;;23.70;32.20;;;;;;10435991;28;20229;-72
2022/07/13 07:33:29;;;;;;;2.27;1.50;;;23.90;31.90;;;;;;10436594;28;20648;-72
2022/07/13 07:38:32;;;;;;;1.43;1.20;;;24.20;31.80;;;;;;10431506;28;20613;-73
2022/07/13 07:43:43;;;;;;;1.10;1.10;;;24.50;31.40;;;;;;10441231;28;20228;-73
2022/07/13 07:48:47;;;;;;;1.20;1.10;;;24.70;30.90;;;;;;10438102;28;20734;-72
2022/07/13 07:53:50;;;;;;;1.50;1.40;;;24.90;31.10;;;;;;10438451;28;20220;-70
2022/07/13 07:58:55;;;;;;;1.27;1.10;;;25.20;30.70;;;;;;10437348;28;20709;-71
2022/07/13 08:03:58;;;;;;;1.20;1.10;;;25.50;30.20;;;;;;10437505;28;20228;-71
2022/07/13 08:09:01;;;;;;;1.20;1.20;;;25.70;30.00;;;;;;10438677;28;20225;-72
2022/07/13 08:14:06;;;;;;;1.30;1.20;;;25.90;29.90;;;;;;10437739;28;20224;-72
2022/07/13 08:19:09;;;;;;;1.10;1.00;;;26.10;29.20;;;;;;10436125;28;20279;-72
2022/07/13 08:24:32;;;;;;;1.20;1.20;;;26.40;29.40;;;;;;10435431;28;20713;-71
2022/07/13 08:29:37;;;;;;;1.23;1.20;;;26.70;29.60;;;;;;10435658;28;20229;-72
2022/07/13 08:40:00;;;;;;;1.00;1.00;;;27.20;28.80;;;;;;10440483;28;20236;-72
2022/07/13 08:45:06;;;;;;;1.30;1.00;;;27.50;27.90;;;;;;10435792;28;20231;-72
2022/07/13 08:50:10;;;;;;;2.70;1.07;;;27.70;26.30;;;;;;10439110;28;20233;-72
2022/07/13 08:55:14;;;;;;;0.90;0.90;;;28.00;26.40;;;;;;10440922;28;20301;-71
2022/07/13 09:00:21;;;;;;;1.40;1.07;;;28.10;26.00;;;;;;10439908;28;20235;-72
2022/07/13 09:05:27;;;;;;;2.50;1.03;;;28.30;24.90;;;;;;10434934;28;20275;-72
2022/07/13 09:10:30;;;;;;;0.90;0.90;;;28.40;25.00;;;;;;10436046;28;20229;-71
2022/07/13 09:15:35;;;;;;;1.00;1.00;;;28.50;25.10;;;;;;10434776;28;20233;-72
2022/07/13 09:20:38;;;;;;;1.80;0.97;;;28.60;24.30;;;;;;10433755;28;20268;-72
2022/07/13 09:25:41;;;;;;;0.90;0.90;;;28.80;24.90;;;;;;10438602;28;20762;-72
2022/07/13 09:30:46;;;;;;;1.00;1.00;;;29.10;25.00;;;;;;10440108;28;20310;-72
2022/07/13 09:35:56;;;;;;;1.00;1.00;;;29.40;24.00;;;;;;10436417;28;20225;-72
2022/07/13 09:41:17;;;;;;;1.00;1.00;;;29.70;24.20;;;;;;10437184;28;20229;-72
2022/07/13 09:46:21;;;;;;;0.80;0.80;;;29.90;23.30;;;;;;10438425;28;20216;-72
2022/07/13 09:51:27;;;;;;;2.57;1.03;;;30.20;23.00;;;;;;10437807;28;20600;-72
2022/07/13 09:56:32;;;;;;;1.07;1.07;;;30.40;22.10;;;;;;10436703;28;20235;-71
2022/07/13 10:01:37;;;;;;;1.00;1.00;;;30.60;22.30;;;;;;10435864;28;20244;-72
2022/07/13 10:06:41;;;;;;;1.00;1.00;;;30.80;21.90;;;;;;10432791;28;20221;-72
2022/07/13 10:11:45;;;;;;;3.40;0.90;;;31.10;21.70;;;;;;10432676;28;20251;-72
2022/07/13 10:16:52;;;;;;;0.90;0.90;;;31.20;21.70;;;;;;10430810;28;20764;-72
2022/07/13 10:22:04;;;;;;;1.00;1.00;;;31.30;20.20;;;;;;10433477;28;20225;-72
2022/07/13 10:27:25;;;;;;;1.10;1.00;;;31.40;20.00;;;;;;10429768;28;20690;-72
2022/07/13 10:32:32;;;;;;;0.90;0.90;;;31.50;19.70;;;;;;10432489;28;20252;-73
2022/07/13 10:38:16;;;;;;;1.30;1.10;;;31.60;19.70;;;;;;10436550;28;20248;-71
2022/07/13 10:43:20;;;;;;;1.10;1.00;;;31.50;19.80;;;;;;10431799;28;20228;-71
2022/07/13 10:48:45;;;;;;;0.90;0.90;;;31.60;19.80;;;;;;10435546;28;20237;-71
2022/07/13 10:54:18;;;;;;;0.90;0.90;;;31.60;19.90;;;;;;10419771;28;20225;-71
2022/07/13 10:59:45;;;;;;;0.97;0.97;;;31.70;19.70;;;;;;10357137;28;20707;-70
2022/07/13 11:04:56;;;;;;;1.00;1.00;;;31.70;18.70;;;;;;10429031;28;20220;-72
2022/07/13 11:10:23;;;;;;;0.90;0.90;;;31.80;17.50;;;;;;10426908;28;20225;-72
2022/07/13 11:15:42;;;;;;;1.07;1.00;;;31.90;18.60;;;;;;10430285;28;20225;-70
2022/07/13 11:20:57;;;;;;;0.83;0.83;;;32.00;17.80;;;;;;10429212;28;20228;-71
2022/07/13 11:26:07;;;;;;;1.57;1.00;;;32.00;17.70;;;;;;10424870;28;20229;-71
2022/07/13 11:31:14;;;;;;;0.90;0.90;;;32.10;17.50;;;;;;10433276;28;20237;-71
2022/07/13 11:36:23;;;;;;;0.97;0.97;;;32.20;17.00;;;;;;10432583;28;20225;-71
2022/07/13 11:41:35;;;;;;;2.10;0.80;;;32.20;16.70;;;;;;10426114;28;20244;-72
2022/07/13 11:46:38;;;;;;;0.90;0.90;;;32.40;17.10;;;;;;10438096;28;20225;-71
2022/07/13 11:51:45;;;;;;;1.80;1.07;;;32.40;16.90;;;;;;10438925;28;20315;-72
2022/07/13 11:56:49;;;;;;;0.80;0.80;;;32.50;15.70;;;;;;10442736;28;20235;-71
2022/07/13 12:01:52;;;;;;;0.90;0.90;;;32.60;15.90;;;;;;10439942;28;20697;-72
2022/07/13 12:07:12;;;;;;;0.90;0.90;;;32.60;16.00;;;;;;10436221;28;20220;-72
2022/07/13 12:12:16;;;;;;;0.90;0.90;;;32.70;15.70;;;;;;10438051;28;20266;-72
2022/07/13 12:17:19;;;;;;;0.80;0.80;;;32.70;15.40;;;;;;10438313;28;20232;-71
2022/07/13 12:22:25;;;;;;;0.83;0.83;;;32.80;15.70;;;;;;10432724;28;20267;-73
2022/07/13 12:27:29;;;;;;;1.30;0.90;;;32.80;15.40;;;;;;10431325;28;20231;-73
2022/07/13 12:32:33;;;;;;;0.80;0.80;;;32.90;15.40;;;;;;10424451;28;20228;-72
2022/07/13 12:37:38;;;;;;;0.93;0.90;;;33.00;15.20;;;;;;10428306;28;20225;-72
2022/07/13 12:42:47;;;;;;;0.80;0.80;;;33.10;14.60;;;;;;10422772;28;20282;-73
2022/07/13 12:47:51;;;;;;;0.70;0.70;;;33.20;14.50;;;;;;10427956;28;20229;-73
2022/07/13 12:53:00;;;;;;;0.80;0.80;;;33.20;14.80;;;;;;10429780;28;20248;-73
2022/07/13 12:58:05;;;;;;;1.17;0.93;;;33.30;13.60;;;;;;10429723;28;20271;-78
2022/07/13 13:03:08;;;;;;;1.03;0.93;;;33.40;14.50;;;;;;10421258;28;20228;-73
2022/07/13 13:08:13;;;;;;;0.80;0.80;;;33.40;14.30;;;;;;10424537;28;20241;-75
2022/07/13 13:13:16;;;;;;;1.00;0.90;;;33.40;13.60;;;;;;10424454;28;20221;-71
2022/07/13 13:18:20;;;;;;;1.30;1.20;;;33.40;14.10;;;;;;10424463;28;20236;-73
2022/07/13 13:23:24;;;;;;;0.80;0.80;;;33.50;13.70;;;;;;10424749;28;20232;-73
2022/07/13 13:28:28;;;;;;;0.90;0.90;;;33.50;13.40;;;;;;10426328;28;20871;-73
2022/07/13 13:33:31;;;;;;;0.80;0.80;;;33.60;13.30;;;;;;10421249;28;20236;-73
2022/07/13 13:38:35;;;;;;;0.90;0.90;;;33.50;13.20;;;;;;10429513;28;20221;-73
2022/07/13 13:43:45;;;;;;;1.00;1.00;;;33.60;12.40;;;;;;10427000;28;20271;-72
2022/07/13 13:48:48;;;;;;;0.90;0.90;;;33.70;12.40;;;;;;10431109;28;20236;-73
2022/07/13 13:53:53;;;;;;;0.83;0.83;;;33.70;12.50;;;;;;10426832;28;20229;-72
2022/07/13 13:58:56;;;;;;;0.83;0.83;;;33.70;12.20;;;;;;10432762;28;20224;-73
2022/07/13 14:03:59;;;;;;;1.13;0.90;;;33.70;12.40;;;;;;10434038;28;20221;-72
2022/07/13 14:09:04;;;;;;;0.90;0.90;;;33.70;12.40;;;;;;10431707;28;21175;-72
2022/07/13 14:14:07;;;;;;;0.70;0.70;;;33.60;12.10;;;;;;10434059;28;20225;-72
2022/07/13 14:19:10;;;;;;;0.90;0.90;;;33.70;12.50;;;;;;10436407;28;21037;-72
2022/07/13 14:24:15;;;;;;;2.13;0.90;;;33.70;12.40;;;;;;10430659;28;20228;-72
2022/07/13 14:29:23;;;;;;;0.90;0.90;;;33.90;11.60;;;;;;10427386;28;20239;-71
2022/07/13 14:34:26;;;;;;;1.13;0.90;;;34.00;11.60;;;;;;10426528;28;20236;-71
2022/07/13 14:39:31;;;;;;;0.90;0.90;;;34.10;12.40;;;;;;10427542;28;20226;-72
2022/07/13 14:44:34;;;;;;;1.00;1.00;;;34.10;10.90;;;;;;10426863;28;20596;-72
2022/07/13 14:49:37;;;;;;;2.10;0.90;;;34.20;11.60;;;;;;10426407;28;20877;-72
2022/07/13 14:55:00;;;;;;;1.57;0.90;;;34.20;11.60;;;;;;10430837;28;20226;-72
2022/07/13 15:00:03;;;;;;;0.73;0.73;;;34.40;10.90;;;;;;10429329;28;20237;-72
2022/07/13 15:05:11;;;;;;;1.90;0.83;;;34.50;10.90;;;;;;10428527;28;20603;-71
2022/07/13 15:10:16;;;;;;;0.90;0.90;;;34.50;10.90;;;;;;10429172;28;20228;-71
2022/07/13 15:15:32;;;;;;;1.03;0.90;;;34.60;10.70;;;;;;10432476;28;20358;-71
2022/07/13 15:20:35;;;;;;;1.13;0.80;;;34.50;10.80;;;;;;10439385;28;20232;-71
2022/07/13 15:25:40;;;;;;;0.90;0.90;;;34.60;11.00;;;;;;10442976;28;20590;-71
2022/07/13 15:30:45;;;;;;;0.90;0.90;;;34.50;10.50;;;;;;10440014;28;20221;-71
2022/07/13 15:35:48;;;;;;;1.00;1.00;;;34.50;10.60;;;;;;10431724;28;20247;-70
2022/07/13 15:46:14;;;;;;;1.50;1.00;;;34.10;11.00;;;;;;10433531;28;20221;-70
2022/07/13 15:51:17;;;;;;;0.80;0.80;;;34.00;11.20;;;;;;10429961;28;20233;-71
2022/07/13 15:56:22;;;;;;;1.10;1.10;;;34.00;11.00;;;;;;10428602;28;20260;-68
2022/07/13 16:01:25;;;;;;;1.00;0.90;;;33.90;11.00;;;;;;10430936;28;20235;-68
2022/07/13 16:06:28;;;;;;;0.80;0.80;;;33.90;11.20;;;;;;10435308;28;20266;-69
2022/07/13 16:11:33;;;;;;;0.90;0.90;;;33.90;11.20;;;;;;10430274;28;20239;-69
2022/07/13 16:16:36;;;;;;;1.07;0.90;;;33.80;10.90;;;;;;10431456;28;20230;-69
2022/07/13 16:21:43;;;;;;;2.30;0.93;;;33.80;11.50;;;;;;10430224;28;20275;-73
2022/07/13 16:26:47;;;;;;;0.80;0.80;;;33.80;11.50;;;;;;10431769;28;20273;-73
2022/07/13 16:31:50;;;;;;;0.70;0.70;;;33.90;11.20;;;;;;10436083;28;20225;-73
2022/07/13 16:36:54;;;;;;;0.97;0.97;;;34.00;10.90;;;;;;10431980;28;20222;-73
2022/07/13 16:41:58;;;;;;;1.00;1.00;;;34.00;10.60;;;;;;10432354;28;20717;-73
2022/07/13 16:47:01;;;;;;;1.10;1.10;;;34.00;10.30;;;;;;10434814;28;20932;-73
2022/07/13 16:52:05;;;;;;;0.80;0.80;;;33.90;11.20;;;;;;10434053;28;20228;-73
2022/07/13 16:57:10;;;;;;;0.80;0.80;;;33.90;10.40;;;;;;10434122;28;20225;-72
2022/07/13 17:02:13;;;;;;;0.77;0.77;;;33.90;10.40;;;;;;10438067;28;20233;-73
2022/07/13 17:07:17;;;;;;;1.27;0.90;;;33.80;10.40;;;;;;10429627;28;20240;-73
2022/07/13 17:12:21;;;;;;;5.97;5.47;;;33.70;10.70;;;;;;10432262;28;21176;-72
2022/07/13 17:17:25;;;;;;;2.50;2.07;;;33.60;10.60;;;;;;10431694;28;20224;-72
2022/07/13 17:22:28;;;;;;;1.37;1.23;;;33.60;11.10;;;;;;10430753;28;20811;-73
2022/07/13 17:27:32;;;;;;;1.03;1.03;;;33.50;11.20;;;;;;10428880;28;20221;-74
2022/07/13 17:32:36;;;;;;;1.10;1.00;;;33.50;11.30;;;;;;10433837;28;20232;-75
2022/07/13 17:37:39;;;;;;;3.70;1.00;;;33.40;11.60;;;;;;10432851;28;20225;-74
2022/07/13 17:42:44;;;;;;;1.80;0.97;;;33.30;12.20;;;;;;10428815;28;20228;-74
2022/07/13 17:47:54;;;;;;;2.87;0.90;;;33.20;12.20;;;;;;10435335;28;20697;-74
2022/07/13 17:52:57;;;;;;;0.87;0.80;;;33.20;12.20;;;;;;10428890;28;20229;-74
2022/07/13 17:58:02;;;;;;;1.10;1.00;;;33.10;12.10;;;;;;10433491;28;20221;-74
2022/07/13 18:03:07;;;;;;;0.93;0.90;;;33.00;11.20;;;;;;10434571;28;20238;-74
2022/07/13 18:08:10;;;;;;;0.93;0.90;;;33.00;11.50;;;;;;10431774;28;20255;-74
2022/07/13 18:13:15;;;;;;;1.17;0.90;;;32.90;11.90;;;;;;10427907;28;20225;-74
2022/07/13 18:18:18;;;;;;;1.90;0.90;;;32.90;12.00;;;;;;10428195;28;20231;-74
2022/07/13 18:28:44;;;;;;;1.57;0.70;;;32.70;12.20;;;;;;10434871;28;20224;-73
2022/07/13 18:33:48;;;;;;;1.10;1.00;;;32.70;12.80;;;;;;10432291;28;20237;-74
2022/07/13 18:38:52;;;;;;;1.70;0.97;;;32.60;12.50;;;;;;10428946;28;20232;-74
2022/07/13 18:43:56;;;;;;;1.47;0.90;;;32.50;12.90;;;;;;10424772;28;20221;-73
2022/07/13 18:49:00;;;;;;;0.90;0.90;;;32.30;13.40;;;;;;10418820;28;20236;-71
2022/07/13 18:54:03;;;;;;;1.00;1.00;;;32.20;13.50;;;;;;10422999;28;20231;-70
2022/07/13 18:59:08;;;;;;;1.47;1.07;;;32.10;13.80;;;;;;10436581;28;20233;-70
2022/07/13 19:04:11;;;;;;;1.07;0.93;;;32.00;14.10;;;;;;10437841;28;20594;-70
2022/07/13 19:09:15;;;;;;;1.00;1.00;;;31.90;14.20;;;;;;10433937;28;20605;-70
2022/07/13 19:14:20;;;;;;;1.10;1.00;;;31.80;14.60;;;;;;10439551;28;20233;-70
2022/07/13 19:19:23;;;;;;;0.90;0.90;;;31.70;14.80;;;;;;10436809;28;20225;-70
2022/07/13 19:27:11;;;;;;;1.17;1.17;;;31.50;14.90;;;;;;10430098;28;20229;-70
2022/07/13 19:29:52;;;;;;;1.20;1.10;;;31.40;14.90;;;;;;10432302;28;20272;-69
2022/07/13 19:34:56;;;;;;;1.37;1.27;;;31.20;15.10;;;;;;10435736;28;20232;-70
2022/07/13 19:39:59;;;;;;;1.10;1.10;;;30.80;15.30;;;;;;10437026;28;20693;-74
2022/07/13 19:45:06;;;;;;;1.10;1.10;;;30.60;15.60;;;;;;10441010;28;20224;-74
2022/07/13 19:50:10;;;;;;;2.20;1.10;;;30.40;16.10;;;;;;10445818;28;20233;-74
2022/07/13 19:55:13;;;;;;;1.53;1.07;;;30.30;16.20;;;;;;10438640;28;20225;-74
2022/07/13 20:00:19;;;;;;;2.57;1.10;;;30.20;16.30;;;;;;10432753;28;20236;-74
2022/07/13 20:05:22;;;;;;;1.10;1.00;;;30.10;16.70;;;;;;10435687;28;20261;-74
2022/07/13 20:10:26;;;;;;;1.13;1.03;;;30.00;16.80;;;;;;10434949;28;20237;-74
2022/07/13 20:15:30;;;;;;;1.00;1.00;;;29.80;17.10;;;;;;10433242;28;20240;-74
2022/07/13 20:20:35;;;;;;;1.27;1.10;;;29.60;17.30;;;;;;10437811;28;20232;-74
2022/07/13 20:25:38;;;;;;;1.20;1.10;;;29.40;17.40;;;;;;10436420;28;20327;-74
2022/07/13 20:30:43;;;;;;;1.00;1.00;;;29.00;17.40;;;;;;10435085;28;20251;-73
2022/07/13 20:35:46;;;;;;;1.33;1.33;;;28.80;18.00;;;;;;10426002;28;20238;-74
2022/07/13 20:40:50;;;;;;;1.30;1.30;;;28.50;18.00;;;;;;10433225;28;20713;-74
2022/07/13 20:45:54;;;;;;;1.40;1.30;;;28.30;18.10;;;;;;10430040;28;20221;-74
2022/07/13 20:50:58;;;;;;;2.93;1.30;;;28.10;18.50;;;;;;10435673;28;20216;-74
2022/07/13 20:56:01;;;;;;;1.30;1.20;;;27.80;18.30;;;;;;10439114;28;20702;-74
2022/07/13 21:01:06;;;;;;;2.13;1.40;;;27.40;18.80;;;;;;10434343;28;20217;-74
2022/07/13 21:06:09;;;;;;;1.33;1.23;;;27.10;19.60;;;;;;10440797;28;20241;-74
2022/07/13 21:11:13;;;;;;;1.63;1.50;;;27.00;19.60;;;;;;10437407;28;20232;-74
2022/07/13 21:16:18;;;;;;;3.00;1.23;;;26.90;19.50;;;;;;10433505;28;20228;-74
2022/07/13 21:21:21;;;;;;;1.10;1.00;;;26.90;20.50;;;;;;10430462;28;20240;-74
2022/07/13 21:26:24;;;;;;;1.37;1.27;;;26.90;20.00;;;;;;10435264;28;20567;-74
2022/07/13 21:31:29;;;;;;;4.57;1.43;;;26.80;20.40;;;;;;10438184;28;20229;-74
2022/07/13 21:36:32;;;;;;;1.37;1.27;;;26.60;20.80;;;;;;10433047;28;20384;-74
2022/07/13 21:41:35;;;;;;;1.70;1.53;;;26.30;20.70;;;;;;10435607;28;20221;-74
2022/07/13 21:46:40;;;;;;;1.33;1.23;;;26.20;21.00;;;;;;10435340;28;20247;-74
2022/07/13 21:51:43;;;;;;;2.10;1.40;;;26.00;21.50;;;;;;10441575;28;20225;-74
2022/07/13 21:56:46;;;;;;;1.63;1.40;;;26.00;21.40;;;;;;10432340;28;20220;-74
2022/07/13 22:01:51;;;;;;;1.47;1.37;;;25.90;21.60;;;;;;10428726;28;20604;-74
2022/07/13 22:07:23;;;;;;;1.80;1.50;;;25.80;21.90;;;;;;10429929;28;20236;-74
2022/07/13 22:13:03;;;;;;;1.00;1.00;;;25.80;22.30;;;;;;10431301;28;20225;-74
2022/07/13 22:18:43;;;;;;;1.40;1.30;;;25.70;22.10;;;;;;10433363;28;20920;-73
2022/07/13 22:24:24;;;;;;;1.50;1.33;;;25.70;22.60;;;;;;10426078;28;20252;-74
2022/07/13 22:30:04;;;;;;;2.03;1.40;;;25.70;22.50;;;;;;10429599;28;20244;-73
2022/07/13 22:35:45;;;;;;;1.47;1.30;;;25.60;22.50;;;;;;10437896;28;20257;-74
2022/07/13 22:41:25;;;;;;;1.40;1.20;;;25.50;22.70;;;;;;10430204;28;20221;-74
2022/07/13 22:47:05;;;;;;;1.50;1.40;;;25.50;22.70;;;;;;10433785;28;20213;-74
2022/07/13 22:52:46;;;;;;;1.70;1.60;;;25.40;23.10;;;;;;10431598;28;20596;-73
2022/07/13 22:58:26;;;;;;;2.00;1.43;;;25.30;23.30;;;;;;10433150;28;20227;-74
2022/07/13 23:04:06;;;;;;;1.40;1.30;;;25.20;23.20;;;;;;10432019;28;21924;-74
2022/07/13 23:09:47;;;;;;;1.70;1.27;;;25.10;23.50;;;;;;10430987;28;20226;-74
2022/07/13 23:15:27;;;;;;;2.40;1.27;;;24.90;23.50;;;;;;10436628;28;20235;-74
2022/07/13 23:21:08;;;;;;;1.93;1.40;;;24.80;23.70;;;;;;10431612;28;20267;-74
2022/07/13 23:26:49;;;;;;;1.53;1.40;;;24.70;23.80;;;;;;10425127;28;20694;-74
2022/07/13 23:32:02;;;;;;;2.13;1.40;;;24.60;24.10;;;;;;10427790;28;20222;-73
2022/07/13 23:37:06;;;;;;;1.57;1.47;;;24.60;24.70;;;;;;10435071;28;20233;-73
2022/07/13 23:42:10;;;;;;;1.70;1.60;;;24.60;24.30;;;;;;10438865;28;20716;-74
2022/07/13 23:47:17;;;;;;;2.07;1.90;;;24.60;24.20;;;;;;10441015;28;20236;-73
2022/07/13 23:52:20;;;;;;;1.70;1.50;;;24.50;24.40;;;;;;10436259;28;20606;-74
2022/07/13 23:57:23;;;;;;;3.10;1.40;;;24.50;24.00;;;;;;10435921;28;20238;-74
